createdAt,value
2018-05-17T00:01:30.888Z,101170.79
2018-05-17T00:03:59.248Z,101170.78
2018-05-17T00:06:27.568Z,101182.95
2018-05-17T00:08:55.930Z,101180.45
2018-05-17T00:11:24.256Z,101170.18
2018-05-17T00:13:52.625Z,101181.69
2018-05-17T00:16:20.960Z,101181.55
2018-05-17T00:18:49.301Z,101181.95
2018-05-17T00:21:17.657Z,101178.95
2018-05-17T00:23:45.984Z,101172.37
2018-05-17T00:26:14.346Z,101174.97
2018-05-17T00:28:42.680Z,101167.45
2018-05-17T00:31:11.041Z,101166.47
2018-05-17T00:33:39.369Z,101172.86
2018-05-17T00:36:07.724Z,101168.17
2018-05-17T00:38:36.060Z,101166.27
2018-05-17T00:41:04.418Z,101164.59
2018-05-17T00:43:32.745Z,101162.56
2018-05-17T00:46:01.101Z,101170.81
2018-05-17T00:48:29.428Z,101166.95
2018-05-17T00:50:57.776Z,101165.16
2018-05-17T00:53:31.934Z,101171.60
2018-05-17T00:56:00.288Z,101168.67
2018-05-17T00:58:28.624Z,101170.36
2018-05-17T01:00:56.980Z,101164.91
2018-05-17T01:03:25.316Z,101159.89
2018-05-17T01:05:53.672Z,101163.36
2018-05-17T01:08:22.017Z,101153.47
2018-05-17T01:10:50.374Z,101158.46
2018-05-17T01:13:18.701Z,101166.80
2018-05-17T01:15:47.057Z,101172.88
2018-05-17T01:18:15.406Z,101163.78
2018-05-17T01:20:43.765Z,101168.07
2018-05-17T01:23:12.097Z,101172.45
2018-05-17T01:25:40.449Z,101162.87
2018-05-17T01:28:08.780Z,101169.38
2018-05-17T01:30:37.143Z,101172.69
2018-05-17T01:33:05.477Z,101161.90
2018-05-17T01:35:33.848Z,101166.73
2018-05-17T01:38:13.792Z,101166.53
2018-05-17T01:40:42.156Z,101166.72
2018-05-17T01:43:10.497Z,101169.19
2018-05-17T01:45:38.844Z,101173.22
2018-05-17T01:48:07.188Z,101184.28
2018-05-17T01:50:35.544Z,101182.16
2018-05-17T01:53:03.873Z,101181.05
2018-05-17T01:55:32.229Z,101176.41
2018-05-17T01:58:00.570Z,101177.17
2018-05-17T02:00:28.927Z,101177.59
2018-05-17T02:02:57.275Z,101177.17
2018-05-17T02:05:25.629Z,101178.45
2018-05-17T02:07:53.961Z,101184.16
2018-05-17T02:10:22.323Z,101184.98
2018-05-17T02:12:50.679Z,101186.28
2018-05-17T02:15:19.032Z,101185.39
2018-05-17T02:17:47.369Z,101179.59
2018-05-17T02:20:15.727Z,101185.99
2018-05-17T02:22:44.065Z,101183.91
2018-05-17T02:25:12.415Z,101179.27
2018-05-17T02:27:40.765Z,101182.57
2018-05-17T02:30:09.121Z,101187.31
2018-05-17T02:32:37.456Z,101182.55
2018-05-17T02:35:05.821Z,101181.59
2018-05-17T02:37:34.161Z,101187.92
2018-05-17T02:40:02.497Z,101190.03
2018-05-17T02:42:30.852Z,101181.92
2018-05-17T02:44:59.201Z,101196.17
2018-05-17T02:47:27.553Z,101188.95
2018-05-17T02:49:55.896Z,101202.45
2018-05-17T02:52:24.252Z,101195.84
2018-05-17T02:54:52.588Z,101188.44
2018-05-17T02:57:20.955Z,101189.36
2018-05-17T02:59:49.281Z,101187.97
2018-05-17T03:02:17.642Z,101185.12
2018-05-17T03:04:45.968Z,101189.89
2018-05-17T03:07:14.320Z,101186.36
2018-05-17T03:09:42.657Z,101189.02
2018-05-17T03:12:11.013Z,101189.58
2018-05-17T03:14:39.354Z,101196.84
2018-05-17T03:17:07.704Z,101199.97
2018-05-17T03:19:36.041Z,101206.61
2018-05-17T03:22:04.396Z,101202.34
2018-05-17T03:24:32.729Z,101206.63
2018-05-17T03:27:01.094Z,101212.36
2018-05-17T03:29:29.424Z,101210.70
2018-05-17T03:31:57.777Z,101215.14
2018-05-17T03:34:26.191Z,101226.31
2018-05-17T03:36:54.460Z,101217.51
2018-05-17T03:39:22.793Z,101229.52
2018-05-17T03:41:51.148Z,101224.24
2018-05-17T03:44:19.485Z,101220.04
2018-05-17T03:46:47.837Z,101219.31
2018-05-17T03:49:16.173Z,101219.78
2018-05-17T03:51:44.576Z,101221.72
2018-05-17T03:54:12.869Z,101230.20
2018-05-17T03:56:41.229Z,101221.02
2018-05-17T03:59:09.557Z,101233.92
2018-05-17T04:01:49.636Z,101224.88
2018-05-17T04:07:19.924Z,101218.75
2018-05-17T04:09:48.253Z,101227.32
2018-05-17T04:12:16.608Z,101232.51
2018-05-17T04:14:44.936Z,101233.31
2018-05-17T04:17:13.295Z,101234.45
2018-05-17T04:19:41.617Z,101237.51
2018-05-17T04:22:09.968Z,101237.14
2018-05-17T04:24:38.305Z,101236.03
2018-05-17T04:27:06.657Z,101240.94
2018-05-17T04:29:34.993Z,101232.86
2018-05-17T04:32:03.346Z,101239.39
2018-05-17T04:34:31.677Z,101235.60
2018-05-17T04:37:00.041Z,101239.59
2018-05-17T04:39:28.372Z,101245.69
2018-05-17T04:41:56.729Z,101248.23
2018-05-17T04:44:25.057Z,101248.13
2018-05-17T04:46:53.408Z,101244.77
2018-05-17T04:49:21.749Z,101237.08
2018-05-17T04:51:50.105Z,101247.70
2018-05-17T04:54:18.433Z,101236.53
2018-05-17T04:56:46.789Z,101242.81
2018-05-17T04:59:15.130Z,101243.66
2018-05-17T05:01:43.480Z,101242.12
2018-05-17T05:04:12.012Z,101246.21
2018-05-17T05:06:40.584Z,101244.08
2018-05-17T05:09:08.933Z,101250.92
2018-05-17T05:11:37.259Z,101246.77
2018-05-17T05:14:05.620Z,101246.20
2018-05-17T05:16:35.962Z,101247.50
2018-05-17T05:19:04.304Z,101245.22
2018-05-17T05:21:32.640Z,101246.52
2018-05-17T05:24:00.985Z,101246.46
2018-05-17T05:26:29.317Z,101254.84
2018-05-17T05:28:57.673Z,101251.07
2018-05-17T05:31:26.084Z,101257.58
2018-05-17T05:33:54.437Z,101252.27
2018-05-17T05:36:22.848Z,101257.70
2018-05-17T05:38:51.192Z,101265.13
2018-05-17T05:41:19.529Z,101262.03
2018-05-17T05:43:47.897Z,101268.89
2018-05-17T05:46:16.229Z,101266.02
2018-05-17T05:48:44.576Z,101271.55
2018-05-17T05:51:12.905Z,101267.95
2018-05-17T05:53:41.259Z,101263.87
2018-05-17T05:56:09.593Z,101273.02
2018-05-17T05:58:37.950Z,101266.36
2018-05-17T06:01:06.284Z,101276.97
2018-05-17T06:03:34.632Z,101275.69
2018-05-17T06:06:02.960Z,101277.69
2018-05-17T06:08:31.314Z,101285.23
2018-05-17T06:10:59.646Z,101286.88
2018-05-17T06:13:28.001Z,101283.89
2018-05-17T06:15:56.337Z,101285.89
2018-05-17T06:18:24.690Z,101276.08
2018-05-17T06:20:53.020Z,101289.84
2018-05-17T06:23:21.386Z,101288.31
2018-05-17T06:25:49.716Z,101281.42
2018-05-17T06:28:18.078Z,101286.48
2018-05-17T06:30:46.408Z,101286.55
2018-05-17T06:33:14.772Z,101293.94
2018-05-17T06:35:43.113Z,101284.41
2018-05-17T06:38:11.474Z,101289.66
2018-05-17T06:40:39.806Z,101290.75
2018-05-17T06:43:08.170Z,101295.32
2018-05-17T06:45:36.510Z,101287.80
2018-05-17T06:48:04.880Z,101284.59
2018-05-17T06:50:33.213Z,101289.28
2018-05-17T06:53:01.584Z,101289.15
2018-05-17T06:55:29.914Z,101286.14
2018-05-17T06:57:58.276Z,101285.38
2018-05-17T07:00:26.612Z,101294.33
2018-05-17T07:02:54.973Z,101288.10
2018-05-17T07:05:23.308Z,101292.09
2018-05-17T07:07:51.668Z,101293.71
2018-05-17T07:10:20.028Z,101286.80
2018-05-17T07:12:48.388Z,101295.28
2018-05-17T07:15:16.749Z,101293.55
2018-05-17T07:17:45.085Z,101301.67
2018-05-17T07:20:13.449Z,101302.95
2018-05-17T07:22:41.788Z,101309.43
2018-05-17T07:25:10.153Z,101301.70
2018-05-17T07:27:38.480Z,101303.22
2018-05-17T07:30:06.865Z,101293.53
2018-05-17T07:32:35.200Z,101294.06
2018-05-17T07:35:03.594Z,101299.98
2018-05-17T07:37:31.925Z,101294.48
2018-05-17T07:40:00.429Z,101292.72
2018-05-17T07:42:28.757Z,101296.78
2018-05-17T07:44:57.110Z,101298.88
2018-05-17T07:47:25.436Z,101296.08
2018-05-17T07:49:53.785Z,101298.00
2018-05-17T07:52:22.121Z,101306.39
2018-05-17T07:54:50.486Z,101311.19
2018-05-17T07:57:18.823Z,101306.91
2018-05-17T07:59:48.077Z,101300.83
2018-05-17T08:02:16.404Z,101309.64
2018-05-17T08:04:44.756Z,101304.37
2018-05-17T08:07:13.090Z,101311.00
2018-05-17T08:09:41.436Z,101311.16
2018-05-17T08:12:09.764Z,101310.91
2018-05-17T08:14:38.111Z,101309.83
2018-05-17T08:17:06.440Z,101311.02
2018-05-17T08:19:34.876Z,101311.84
2018-05-17T08:22:03.197Z,101315.06
2018-05-17T08:24:31.552Z,101317.20
2018-05-17T08:26:59.880Z,101311.58
2018-05-17T08:29:28.237Z,101318.59
2018-05-17T08:31:56.572Z,101318.98
2018-05-17T08:34:24.933Z,101310.48
2018-05-17T08:36:53.259Z,101318.34
2018-05-17T08:39:21.630Z,101321.48
2018-05-17T08:41:49.940Z,101316.14
2018-05-17T08:44:18.288Z,101317.14
2018-05-17T08:46:46.621Z,101316.67
2018-05-17T08:49:14.972Z,101320.75
2018-05-17T08:51:43.309Z,101318.41
2018-05-17T08:54:11.665Z,101314.59
2018-05-17T08:56:40.312Z,101321.14
2018-05-17T08:59:08.718Z,101318.45
2018-05-17T09:01:36.996Z,101315.75
2018-05-17T09:04:05.344Z,101323.57
2018-05-17T09:06:33.672Z,101320.52
2018-05-17T09:09:02.034Z,101320.73
2018-05-17T09:11:30.356Z,101327.53
2018-05-17T09:13:58.720Z,101322.80
2018-05-17T09:16:27.048Z,101319.86
2018-05-17T09:18:55.386Z,101327.02
2018-05-17T09:21:23.735Z,101326.08
2018-05-17T09:23:52.081Z,101323.55
2018-05-17T09:26:20.449Z,101319.11
2018-05-17T09:28:48.779Z,101325.77
2018-05-17T09:31:17.141Z,101321.39
2018-05-17T09:33:45.473Z,101327.41
2018-05-17T09:36:13.836Z,101324.02
2018-05-17T09:38:42.172Z,101328.57
2018-05-17T09:41:10.541Z,101332.59
2018-05-17T09:43:38.864Z,101324.68
2018-05-17T09:46:07.300Z,101335.15
2018-05-17T09:48:35.549Z,101331.32
2018-05-17T09:51:03.904Z,101332.55
2018-05-17T09:53:32.237Z,101330.93
2018-05-17T09:56:01.217Z,101333.49
2018-05-17T09:58:29.549Z,101330.42
2018-05-17T10:00:57.932Z,101329.80
2018-05-17T10:03:26.260Z,101328.08
2018-05-17T10:05:54.613Z,101326.07
2018-05-17T10:08:22.946Z,101335.57
2018-05-17T10:10:51.307Z,101320.31
2018-05-17T10:13:19.637Z,101316.24
2018-05-17T10:15:47.994Z,101326.56
2018-05-17T10:18:16.325Z,101316.52
2018-05-17T10:20:44.680Z,101318.87
2018-05-17T10:23:13.107Z,101324.42
2018-05-17T10:25:41.377Z,101315.73
2018-05-17T10:28:09.705Z,101316.32
2018-05-17T10:30:38.051Z,101317.91
2018-05-17T10:33:06.382Z,101314.12
2018-05-17T10:35:34.740Z,101306.84
2018-05-17T10:38:03.061Z,101318.40
2018-05-17T10:40:31.417Z,101305.81
2018-05-17T10:42:59.759Z,101303.63
2018-05-17T10:45:28.110Z,101300.42
2018-05-17T10:47:56.437Z,101305.48
2018-05-17T10:50:24.794Z,101306.42
2018-05-17T10:52:53.116Z,101297.22
2018-05-17T10:55:21.464Z,101300.38
2018-05-17T10:57:49.797Z,101303.31
2018-05-17T11:00:18.152Z,101298.50
2018-05-17T11:02:46.482Z,101297.33
2018-05-17T11:05:14.813Z,101303.82
2018-05-17T11:07:43.168Z,101298.70
2018-05-17T11:10:11.497Z,101301.83
2018-05-17T11:12:39.845Z,101292.03
2018-05-17T11:15:08.199Z,101295.09
2018-05-17T11:17:36.532Z,101297.69
2018-05-17T11:20:04.860Z,101294.26
2018-05-17T11:22:33.213Z,101305.80
2018-05-17T11:25:01.550Z,101294.97
2018-05-17T11:27:29.964Z,101300.16
2018-05-17T11:29:58.296Z,101305.75
2018-05-17T11:32:26.808Z,101301.81
2018-05-17T11:34:55.141Z,101298.78
2018-05-17T11:37:23.649Z,101299.70
2018-05-17T11:39:52.135Z,101291.54
2018-05-17T11:42:20.565Z,101287.13
2018-05-17T11:44:48.999Z,101300.52
2018-05-17T11:47:17.354Z,101300.97
2018-05-17T11:49:45.686Z,101296.66
2018-05-17T11:52:14.952Z,101291.06
2018-05-17T11:54:43.325Z,101305.69
2018-05-17T11:57:11.701Z,101291.52
2018-05-17T11:59:40.129Z,101294.55
2018-05-17T12:02:08.593Z,101293.30
2018-05-17T12:04:37.043Z,101295.31
2018-05-17T12:07:05.600Z,101288.05
2018-05-17T12:09:34.000Z,101281.59
2018-05-17T12:12:02.906Z,101289.62
2018-05-17T12:14:31.254Z,101281.61
2018-05-17T12:16:59.640Z,101281.26
2018-05-17T12:19:27.970Z,101283.48
2018-05-17T12:21:56.329Z,101285.19
2018-05-17T12:24:24.664Z,101279.15
2018-05-17T12:26:53.048Z,101275.33
2018-05-17T12:29:21.372Z,101280.02
2018-05-17T12:31:49.940Z,101285.63
2018-05-17T12:34:18.166Z,101283.45
2018-05-17T12:36:46.521Z,101279.14
2018-05-17T12:39:15.209Z,101278.23
2018-05-17T12:41:43.729Z,101284.27
2018-05-17T12:44:12.057Z,101279.16
2018-05-17T12:46:40.457Z,101280.04
2018-05-17T12:49:08.788Z,101285.23
2018-05-17T12:51:37.264Z,101283.45
2018-05-17T12:54:05.593Z,101286.44
2018-05-17T12:56:33.945Z,101284.31
2018-05-17T12:59:02.285Z,101283.03
2018-05-17T13:01:30.652Z,101280.05
2018-05-17T13:03:58.984Z,101283.08
2018-05-17T13:06:27.321Z,101280.98
2018-05-17T13:08:55.717Z,101285.27
2018-05-17T13:11:24.041Z,101282.28
2018-05-17T13:13:52.417Z,101271.45
2018-05-17T13:16:20.861Z,101274.93
2018-05-17T13:18:49.214Z,101277.95
2018-05-17T13:21:17.576Z,101268.92
2018-05-17T13:23:45.933Z,101275.36
2018-05-17T13:26:14.578Z,101265.91
2018-05-17T13:28:43.338Z,101274.53
2018-05-17T13:31:12.034Z,101268.91
2018-05-17T13:33:40.675Z,101254.29
2018-05-17T13:36:09.255Z,101262.48
2018-05-17T13:38:37.604Z,101260.28
2018-05-17T13:41:05.933Z,101264.18
2018-05-17T13:43:34.288Z,101263.30
2018-05-17T13:46:02.617Z,101261.18
2018-05-17T13:48:30.982Z,101255.17
2018-05-17T13:50:59.321Z,101265.05
2018-05-17T13:53:27.669Z,101270.56
2018-05-17T13:55:56.009Z,101264.47
2018-05-17T13:58:24.368Z,101267.58
2018-05-17T14:00:52.692Z,101274.92
2018-05-17T14:03:21.040Z,101278.34
2018-05-17T14:05:49.385Z,101275.80
2018-05-17T14:08:17.738Z,101276.20
2018-05-17T14:10:46.064Z,101270.64
2018-05-17T14:13:14.416Z,101262.47
2018-05-17T14:15:42.749Z,101274.51
2018-05-17T14:18:11.098Z,101278.38
2018-05-17T14:20:39.429Z,101280.50
2018-05-17T14:23:07.806Z,101276.17
2018-05-17T14:25:36.116Z,101286.00
2018-05-17T14:28:04.464Z,101282.90
2018-05-17T14:30:32.793Z,101282.95
2018-05-17T14:33:01.150Z,101287.25
2018-05-17T14:35:29.476Z,101292.33
2018-05-17T14:37:57.840Z,101299.88
2018-05-17T14:40:26.169Z,101298.64
2018-05-17T14:42:54.600Z,101293.95
2018-05-17T14:45:25.930Z,101298.75
2018-05-17T14:47:54.275Z,101299.67
2018-05-17T14:50:22.604Z,101297.61
2018-05-17T14:52:50.968Z,101301.08
2018-05-17T14:55:19.296Z,101302.33
2018-05-17T14:57:47.665Z,101300.63
2018-05-17T15:00:15.990Z,101305.82
2018-05-17T15:02:44.353Z,101300.59
2018-05-17T15:05:12.681Z,101297.97
2018-05-17T15:07:41.008Z,101294.52
2018-05-17T15:10:09.366Z,101306.09
2018-05-17T15:12:38.157Z,101303.55
2018-05-17T15:15:06.511Z,101307.42
2018-05-17T15:17:34.842Z,101306.09
2018-05-17T15:20:03.189Z,101306.87
2018-05-17T15:22:31.615Z,101304.64
2018-05-17T15:24:59.952Z,101303.25
2018-05-17T15:27:28.337Z,101302.02
2018-05-17T15:29:56.748Z,101300.70
2018-05-17T15:32:24.968Z,101300.68
2018-05-17T15:34:53.337Z,101302.92
2018-05-17T15:37:21.654Z,101300.30
2018-05-17T15:39:50.000Z,101300.21
2018-05-17T15:42:18.333Z,101298.11
2018-05-17T15:44:46.685Z,101302.89
2018-05-17T15:47:15.021Z,101300.23
2018-05-17T15:49:43.381Z,101301.42
2018-05-17T15:52:11.712Z,101302.75
2018-05-17T15:54:40.069Z,101306.62
2018-05-17T15:57:08.397Z,101305.36
2018-05-17T15:59:36.748Z,101303.63
2018-05-17T16:02:05.076Z,101304.09
2018-05-17T16:04:33.428Z,101303.68
2018-05-17T16:07:01.757Z,101307.58
2018-05-17T16:09:30.109Z,101301.94
2018-05-17T16:11:58.441Z,101310.77
2018-05-17T16:14:26.789Z,101302.31
2018-05-17T16:16:55.121Z,101303.59
2018-05-17T16:19:23.467Z,101298.47
2018-05-17T16:21:51.934Z,101302.29
2018-05-17T16:24:20.155Z,101301.80
2018-05-17T16:26:48.484Z,101301.31
2018-05-17T16:29:16.832Z,101303.47
2018-05-17T16:31:45.160Z,101299.53
2018-05-17T16:34:14.448Z,101304.23
2018-05-17T16:36:42.776Z,101311.15
2018-05-17T16:39:11.123Z,101310.63
2018-05-17T16:41:39.466Z,101314.07
2018-05-17T16:44:07.817Z,101316.59
2018-05-17T16:46:36.148Z,101324.25
2018-05-17T16:49:04.513Z,101324.04
2018-05-17T16:51:32.845Z,101326.23
2018-05-17T16:54:01.261Z,101327.97
2018-05-17T16:56:29.524Z,101327.14
2018-05-17T16:58:57.876Z,101325.41
2018-05-17T17:01:26.209Z,101334.92
2018-05-17T17:03:54.560Z,101335.36
2018-05-17T17:06:22.901Z,101333.13
2018-05-17T17:08:51.221Z,101331.94
2018-05-17T17:11:19.569Z,101334.87
2018-05-17T17:13:47.902Z,101333.64
2018-05-17T17:16:16.265Z,101331.38
2018-05-17T17:18:44.589Z,101332.58
2018-05-17T17:21:13.006Z,101333.74
2018-05-17T17:23:41.611Z,101330.41
2018-05-17T17:26:10.299Z,101316.64
2018-05-17T17:28:38.724Z,101325.20
2018-05-17T17:31:07.073Z,101324.84
2018-05-17T17:33:35.400Z,101326.89
2018-05-17T17:36:03.752Z,101326.06
2018-05-17T17:38:32.085Z,101336.73
2018-05-17T17:41:00.428Z,101334.20
2018-05-17T17:43:28.757Z,101331.66
2018-05-17T17:45:57.107Z,101343.08
2018-05-17T17:48:25.437Z,101334.11
2018-05-17T17:50:53.796Z,101341.81
2018-05-17T17:53:22.128Z,101340.17
2018-05-17T17:55:50.481Z,101341.81
2018-05-17T17:58:18.817Z,101344.72
2018-05-17T18:00:47.166Z,101336.07
2018-05-17T18:03:15.493Z,101343.31
2018-05-17T18:05:43.845Z,101345.03
2018-05-17T18:08:12.176Z,101336.82
2018-05-17T18:10:41.602Z,101348.30
2018-05-17T18:13:10.285Z,101342.54
2018-05-17T18:15:38.953Z,101345.16
2018-05-17T18:18:07.708Z,101342.52
2018-05-17T18:20:36.527Z,101345.03
2018-05-17T18:23:05.292Z,101341.70
2018-05-17T18:25:34.121Z,101344.68
2018-05-17T18:28:02.838Z,101344.16
2018-05-17T18:30:31.710Z,101346.66
2018-05-17T18:33:00.403Z,101340.09
2018-05-17T18:35:28.802Z,101336.14
2018-05-17T18:37:57.132Z,101337.95
2018-05-17T18:40:25.484Z,101341.30
2018-05-17T18:42:53.820Z,101342.97
2018-05-17T18:45:22.444Z,101347.57
2018-05-17T18:47:50.772Z,101342.78
2018-05-17T18:50:19.125Z,101351.02
2018-05-17T18:52:47.449Z,101354.39
2018-05-17T18:55:15.804Z,101355.58
2018-05-17T18:57:44.132Z,101357.22
2018-05-17T19:00:12.493Z,101362.48
2018-05-17T19:02:40.828Z,101365.90
2018-05-17T19:05:09.177Z,101365.75
2018-05-17T19:07:37.513Z,101371.44
2018-05-17T19:10:05.872Z,101371.41
2018-05-17T19:12:34.192Z,101370.94
2018-05-17T19:15:02.548Z,101370.22
2018-05-17T19:17:30.888Z,101370.52
2018-05-17T19:19:59.216Z,101375.73
2018-05-17T19:22:27.564Z,101365.47
2018-05-17T19:24:55.896Z,101370.20
2018-05-17T19:27:24.240Z,101372.00
2018-05-17T19:29:52.577Z,101376.70
2018-05-17T19:32:20.934Z,101382.64
2018-05-17T19:34:49.265Z,101386.02
2018-05-17T19:37:17.697Z,101385.20
2018-05-17T19:39:46.876Z,101389.77
2018-05-17T19:42:15.230Z,101391.22
2018-05-17T19:44:43.570Z,101389.93
2018-05-17T19:47:11.958Z,101398.44
2018-05-17T19:49:40.265Z,101405.17
2018-05-17T19:52:08.622Z,101408.03
2018-05-17T19:54:36.974Z,101411.02
2018-05-17T19:57:05.318Z,101407.06
2018-05-17T19:59:33.729Z,101403.27
2018-05-17T20:02:02.165Z,101402.78
2018-05-17T20:04:30.660Z,101406.27
2018-05-17T20:06:59.181Z,101405.80
2018-05-17T20:09:27.516Z,101401.41
2018-05-17T20:11:55.868Z,101403.86
2018-05-17T20:14:24.443Z,101403.45
2018-05-17T20:16:52.998Z,101401.56
2018-05-17T20:19:21.331Z,101403.25
2018-05-17T20:21:49.685Z,101404.67
2018-05-17T20:24:18.013Z,101402.94
2018-05-17T20:26:46.362Z,101405.48
2018-05-17T20:29:14.733Z,101403.28
2018-05-17T20:31:43.064Z,101408.76
2018-05-17T20:34:11.461Z,101412.16
2018-05-17T20:36:39.859Z,101414.19
2018-05-17T20:39:08.168Z,101417.23
2018-05-17T20:41:36.517Z,101419.19
2018-05-17T20:44:04.850Z,101417.69
2018-05-17T20:46:33.215Z,101415.14
2018-05-17T20:49:01.546Z,101421.09
2018-05-17T20:51:29.902Z,101414.84
2018-05-17T20:53:58.238Z,101414.88
2018-05-17T20:56:26.661Z,101417.39
2018-05-17T20:58:54.989Z,101415.22
2018-05-17T21:01:23.378Z,101419.83
2018-05-17T21:03:52.004Z,101413.30
2018-05-17T21:06:20.389Z,101417.48
2018-05-17T21:08:48.712Z,101422.03
2018-05-17T21:11:17.098Z,101425.07
2018-05-17T21:13:45.477Z,101423.41
2018-05-17T21:16:14.093Z,101422.70
2018-05-17T21:18:42.557Z,101426.87
2018-05-17T21:21:10.968Z,101427.67
2018-05-17T21:23:39.462Z,101425.44
2018-05-17T21:26:07.775Z,101422.89
2018-05-17T21:28:36.120Z,101425.38
2018-05-17T21:31:04.647Z,101421.39
2018-05-17T21:33:33.028Z,101428.67
2018-05-17T21:36:01.357Z,101420.88
2018-05-17T21:38:30.073Z,101421.09
2018-05-17T21:40:58.402Z,101422.81
2018-05-17T21:43:26.756Z,101425.26
2018-05-17T21:45:55.084Z,101426.22
2018-05-17T21:48:23.436Z,101421.00
2018-05-17T21:50:51.770Z,101426.39
2018-05-17T21:53:20.116Z,101425.88
2018-05-17T21:55:48.444Z,101430.03
2018-05-17T21:58:16.801Z,101426.77
2018-05-17T22:00:45.148Z,101416.99
2018-05-17T22:03:13.507Z,101421.45
2018-05-17T22:05:41.833Z,101425.19
2018-05-17T22:08:10.219Z,101420.56
2018-05-17T22:10:38.539Z,101419.65
2018-05-17T22:13:06.888Z,101428.18
2018-05-17T22:15:35.216Z,101419.22
2018-05-17T22:18:03.572Z,101419.72
2018-05-17T22:20:31.897Z,101422.67
2018-05-17T22:23:00.244Z,101425.52
2018-05-17T22:25:28.577Z,101420.45
2018-05-17T22:27:56.926Z,101427.56
2018-05-17T22:30:25.253Z,101428.62
2018-05-17T22:32:53.635Z,101429.54
2018-05-17T22:35:21.936Z,101429.56
2018-05-17T22:37:50.296Z,101422.76
2018-05-17T22:40:18.629Z,101430.27
2018-05-17T22:42:46.982Z,101422.37
2018-05-17T22:45:15.300Z,101426.63
2018-05-17T22:47:43.660Z,101425.05
2018-05-17T22:50:12.000Z,101418.96
2018-05-17T22:52:40.353Z,101421.38
2018-05-17T22:55:08.684Z,101422.80
2018-05-17T22:57:48.668Z,101413.28
2018-05-17T23:00:17.013Z,101421.78
2018-05-17T23:02:45.084Z,101415.00
2018-05-17T23:05:13.423Z,101415.53
2018-05-17T23:07:41.777Z,101413.50
2018-05-17T23:10:10.116Z,101408.59
2018-05-17T23:12:38.467Z,101410.21
2018-05-17T23:15:06.800Z,101412.69
2018-05-17T23:17:35.149Z,101416.13
2018-05-17T23:20:03.476Z,101416.63
2018-05-17T23:22:37.136Z,101418.09
2018-05-17T23:25:08.198Z,101421.68
2018-05-17T23:27:36.548Z,101419.23
2018-05-17T23:30:04.880Z,101417.95
2018-05-17T23:32:33.239Z,101422.80
2018-05-17T23:35:01.577Z,101418.98
2018-05-17T23:37:29.913Z,101424.55
2018-05-17T23:40:10.034Z,101414.59
2018-05-17T23:42:38.401Z,101421.38
2018-05-17T23:45:06.728Z,101420.47
2018-05-17T23:47:35.065Z,101422.61
2018-05-17T23:50:03.416Z,101412.78
2018-05-17T23:52:31.749Z,101416.17
2018-05-17T23:55:00.105Z,101406.30
2018-05-17T23:57:28.447Z,101404.23
2018-05-17T23:59:56.793Z,101400.44
